createdAt,value
2019-04-03T00:01:08.861Z,3.47
2019-04-03T00:03:38.261Z,3.67
2019-04-03T00:06:07.594Z,6.40
2019-04-03T00:08:37.131Z,5.33
2019-04-03T00:11:09.462Z,3.10
2019-04-03T00:13:41.554Z,2.53
2019-04-03T00:16:09.837Z,2.97
2019-04-03T00:18:39.415Z,2.70
2019-04-03T00:21:08.837Z,3.07
2019-04-03T00:23:38.287Z,2.60
2019-04-03T00:26:07.718Z,2.50
2019-04-03T00:28:37.171Z,3.30
2019-04-03T00:31:06.597Z,2.23
2019-04-03T00:33:36.069Z,2.37
2019-04-03T00:36:05.596Z,3.23
2019-04-03T00:38:35.012Z,2.20
2019-04-03T00:41:04.551Z,2.13
2019-04-03T00:43:33.960Z,3.00
2019-04-03T00:46:03.337Z,1.97
2019-04-03T00:48:32.857Z,2.20
2019-04-03T00:51:02.439Z,4.87
2019-04-03T00:53:31.904Z,2.10
2019-04-03T00:56:01.467Z,3.40
2019-04-03T00:58:41.519Z,2.83
2019-04-03T01:01:10.981Z,2.10
2019-04-03T01:03:40.474Z,4.27
2019-04-03T01:06:09.924Z,2.03
2019-04-03T01:08:39.411Z,2.50
2019-04-03T01:11:08.763Z,2.10
2019-04-03T01:13:38.260Z,2.33
2019-04-03T01:16:07.643Z,2.33
2019-04-03T01:18:37.032Z,3.10
2019-04-03T01:21:07.136Z,5.17
2019-04-03T01:23:37.999Z,2.53
2019-04-03T01:26:09.297Z,2.60
2019-04-03T01:28:41.364Z,2.03
2019-04-03T01:31:09.913Z,8.00
2019-04-03T01:33:39.406Z,2.00
2019-04-03T01:36:08.813Z,5.20
2019-04-03T01:38:38.421Z,2.70
2019-04-03T01:41:07.883Z,1.93
2019-04-03T01:43:37.650Z,2.20
2019-04-03T01:46:07.144Z,2.83
2019-04-03T01:48:36.551Z,1.77
2019-04-03T01:51:05.987Z,3.33
2019-04-03T01:53:35.415Z,4.77
2019-04-03T01:56:05.281Z,1.93
2019-04-03T01:58:36.507Z,1.93
2019-04-03T02:01:07.585Z,2.20
2019-04-03T02:03:36.739Z,2.03
2019-04-03T02:06:06.539Z,3.60
2019-04-03T02:08:35.955Z,2.83
2019-04-03T02:11:05.433Z,3.13
2019-04-03T02:13:34.828Z,6.27
2019-04-03T02:16:04.259Z,6.37
2019-04-03T02:18:33.737Z,6.30
2019-04-03T02:21:03.183Z,2.60
2019-04-03T02:23:32.605Z,2.60
2019-04-03T02:26:02.796Z,4.33
2019-04-03T02:28:34.164Z,2.50
2019-04-03T02:31:03.672Z,2.50
2019-04-03T02:33:33.070Z,2.63
2019-04-03T02:36:02.513Z,2.93
2019-04-03T02:38:32.112Z,2.60
2019-04-03T02:41:03.931Z,2.97
2019-04-03T02:43:32.542Z,9.80
2019-04-03T02:46:02.298Z,5.20
2019-04-03T02:48:31.664Z,4.03
2019-04-03T02:51:01.108Z,2.60
2019-04-03T02:53:31.146Z,3.47
2019-04-03T02:56:01.019Z,4.37
2019-04-03T02:58:30.677Z,4.90
2019-04-03T03:01:00.387Z,2.50
2019-04-03T03:03:29.993Z,2.93
2019-04-03T03:06:00.889Z,5.73
2019-04-03T03:08:30.611Z,4.83
2019-04-03T03:11:00.238Z,3.00
2019-04-03T03:13:33.635Z,3.87
2019-04-03T03:16:00.758Z,6.80
2019-04-03T03:18:30.155Z,2.90
2019-04-03T03:20:59.629Z,5.57
2019-04-03T03:23:29.087Z,3.93
2019-04-03T03:25:58.523Z,4.20
2019-04-03T03:28:27.924Z,3.00
2019-04-03T03:31:02.608Z,4.70
2019-04-03T03:33:35.452Z,6.27
2019-04-03T03:36:02.543Z,4.17
2019-04-03T03:38:32.266Z,6.60
2019-04-03T03:41:02.046Z,3.77
2019-04-03T03:43:37.133Z,3.17
2019-04-03T03:46:04.300Z,3.93
2019-04-03T03:48:34.324Z,3.43
2019-04-03T03:51:04.167Z,5.77
2019-04-03T03:53:33.656Z,4.40
2019-04-03T03:56:03.057Z,8.43
2019-04-03T03:58:32.498Z,5.90
2019-04-03T04:01:02.048Z,4.37
2019-04-03T04:03:31.576Z,4.50
2019-04-03T04:06:01.227Z,3.97
2019-04-03T04:08:31.684Z,6.43
2019-04-03T04:11:01.114Z,4.10
2019-04-03T04:13:30.703Z,7.63
2019-04-03T04:16:03.891Z,4.83
2019-04-03T04:18:32.657Z,8.73
2019-04-03T04:21:02.135Z,6.83
2019-04-03T04:23:31.704Z,6.80
2019-04-03T04:26:01.548Z,4.67
2019-04-03T04:28:31.383Z,9.10
2019-04-03T04:31:00.783Z,7.47
2019-04-03T04:33:30.222Z,8.43
2019-04-03T04:35:59.614Z,3.53
2019-04-03T04:38:29.031Z,5.10
2019-04-03T04:41:01.382Z,6.33
2019-04-03T04:43:29.579Z,4.03
2019-04-03T04:45:59.016Z,4.17
2019-04-03T04:48:28.741Z,5.08
2019-04-03T04:50:58.264Z,4.70
2019-04-03T04:53:29.396Z,5.53
2019-04-03T04:55:58.808Z,4.37
2019-04-03T04:58:28.274Z,5.17
2019-04-03T05:00:58.903Z,5.55
2019-04-03T05:03:28.535Z,4.70
2019-04-03T05:05:58.831Z,6.20
2019-04-03T05:08:28.477Z,4.63
2019-04-03T05:10:57.909Z,4.37
2019-04-03T05:13:27.323Z,6.30
2019-04-03T05:15:56.964Z,6.87
2019-04-03T05:18:28.575Z,6.35
2019-04-03T05:20:57.528Z,6.60
2019-04-03T05:23:28.913Z,4.62
2019-04-03T05:26:01.001Z,4.00
2019-04-03T05:28:29.022Z,5.20
2019-04-03T05:30:58.717Z,10.23
2019-04-03T05:33:28.212Z,10.80
2019-04-03T05:35:57.640Z,7.70
2019-04-03T05:38:27.096Z,7.33
2019-04-03T05:40:57.097Z,8.10
2019-04-03T05:43:26.563Z,6.83
2019-04-03T05:45:55.974Z,7.97
2019-04-03T05:48:25.362Z,24.30
2019-04-03T05:50:57.637Z,12.70
2019-04-03T05:53:25.880Z,10.00
2019-04-03T05:55:55.324Z,10.30
2019-04-03T05:58:24.709Z,5.70
2019-04-03T06:01:04.366Z,12.63
2019-04-03T06:03:37.942Z,6.07
2019-04-03T06:05:58.078Z,7.07
2019-04-03T06:08:27.553Z,7.60
2019-04-03T06:11:08.038Z,5.77
2019-04-03T06:13:49.792Z,9.87
2019-04-03T06:16:17.245Z,7.70
2019-04-03T06:18:47.655Z,8.13
2019-04-03T06:21:17.901Z,9.13
2019-04-03T06:23:47.363Z,57.83
2019-04-03T06:26:18.706Z,13.13
2019-04-03T06:28:47.943Z,9.70
2019-04-03T06:31:17.332Z,15.90
2019-04-03T06:33:46.958Z,6.30
2019-04-03T06:36:17.525Z,11.50
2019-04-03T06:38:47.862Z,6.77
2019-04-03T06:41:17.473Z,4.77
2019-04-03T06:43:49.558Z,8.17
2019-04-03T06:46:18.011Z,4.80
2019-04-03T06:48:47.396Z,14.57
2019-04-03T06:51:16.927Z,4.67
2019-04-03T06:53:46.599Z,4.23
2019-04-03T06:56:16.000Z,5.73
2019-04-03T06:58:45.460Z,7.10
2019-04-03T07:01:16.378Z,3.77
2019-04-03T07:03:45.957Z,4.07
2019-04-03T07:06:15.571Z,3.30
2019-04-03T07:08:45.308Z,2.87
2019-04-03T07:11:23.147Z,4.00
2019-04-03T07:13:47.466Z,7.30
2019-04-03T07:16:16.799Z,3.80
2019-04-03T07:18:46.212Z,4.67
2019-04-03T07:21:15.573Z,6.50
2019-04-03T07:23:44.989Z,4.17
2019-04-03T07:26:14.419Z,5.62
2019-04-03T07:28:43.980Z,7.70
2019-04-03T07:31:13.314Z,4.83
2019-04-03T07:33:42.935Z,3.60
2019-04-03T07:36:12.401Z,4.57
2019-04-03T07:38:42.978Z,6.47
2019-04-03T07:41:12.453Z,6.80
2019-04-03T07:43:41.840Z,4.60
2019-04-03T07:46:11.236Z,5.30
2019-04-03T07:48:40.643Z,8.53
2019-04-03T07:51:12.453Z,8.90
2019-04-03T07:53:41.227Z,8.67
2019-04-03T07:56:11.006Z,4.80
2019-04-03T07:58:40.554Z,5.43
2019-04-03T08:01:11.015Z,7.23
2019-04-03T08:03:40.824Z,5.93
2019-04-03T08:06:10.304Z,7.90
2019-04-03T08:08:39.777Z,5.00
2019-04-03T08:11:09.213Z,5.40
2019-04-03T08:13:39.123Z,4.70
2019-04-03T08:16:08.808Z,5.53
2019-04-03T08:18:38.200Z,9.50
2019-04-03T08:21:07.591Z,4.77
2019-04-03T08:23:37.630Z,6.43
2019-04-03T08:26:07.262Z,5.77
2019-04-03T08:28:36.629Z,8.17
2019-04-03T08:31:06.019Z,5.35
2019-04-03T08:33:35.399Z,5.07
2019-04-03T08:36:07.727Z,5.83
2019-04-03T08:38:36.507Z,5.17
2019-04-03T08:41:05.957Z,7.53
2019-04-03T08:43:35.774Z,6.37
2019-04-03T08:46:05.382Z,4.85
2019-04-03T08:48:34.789Z,8.90
2019-04-03T08:51:04.220Z,7.60
2019-04-03T08:53:33.689Z,6.27
2019-04-03T08:56:03.175Z,5.80
2019-04-03T08:58:32.624Z,5.63
2019-04-03T09:01:04.825Z,4.75
2019-04-03T09:03:34.773Z,4.93
2019-04-03T09:06:04.358Z,6.53
2019-04-03T09:08:34.230Z,4.93
2019-04-03T09:14:20.300Z,5.72
2019-04-03T09:17:18.344Z,7.57
2019-04-03T09:19:49.716Z,7.90
2019-04-03T09:22:41.236Z,8.50
2019-04-03T09:25:00.611Z,11.00
2019-04-03T09:27:30.723Z,12.07
2019-04-03T09:30:01.931Z,8.13
2019-04-03T09:32:37.391Z,9.37
2019-04-03T09:35:07.118Z,7.33
2019-04-03T09:37:38.113Z,13.27
2019-04-03T09:40:08.259Z,7.57
2019-04-03T09:42:37.747Z,9.50
2019-04-03T09:45:07.496Z,11.60
2019-04-03T09:47:36.981Z,11.37
2019-04-03T09:50:07.733Z,7.73
2019-04-03T09:52:41.741Z,11.77
2019-04-03T09:55:09.691Z,8.77
2019-04-03T09:57:39.057Z,8.27
2019-04-03T10:00:10.577Z,10.07
2019-04-03T10:02:40.102Z,8.13
2019-04-03T10:05:09.710Z,9.50
2019-04-03T10:07:39.234Z,7.73
2019-04-03T10:10:08.593Z,6.60
2019-04-03T10:12:38.263Z,6.30
2019-04-03T10:15:07.636Z,8.07
2019-04-03T10:17:38.604Z,7.50
2019-04-03T10:20:09.030Z,8.13
2019-04-03T10:22:38.496Z,12.40
2019-04-03T10:25:08.915Z,7.53
2019-04-03T10:27:42.645Z,13.80
2019-04-03T10:30:12.172Z,8.60
2019-04-03T10:32:41.715Z,8.83
2019-04-03T10:35:12.255Z,9.27
2019-04-03T10:37:41.588Z,12.23
2019-04-03T10:40:12.097Z,15.60
2019-04-03T10:42:41.523Z,7.53
2019-04-03T10:45:11.145Z,10.67
2019-04-03T10:47:43.591Z,11.17
2019-04-03T10:50:11.593Z,7.27
2019-04-03T10:52:43.956Z,10.72
2019-04-03T10:55:12.341Z,10.40
2019-04-03T10:57:41.817Z,10.03
2019-04-03T11:00:12.233Z,11.17
2019-04-03T11:02:41.986Z,7.80
2019-04-03T11:05:11.861Z,15.57
2019-04-03T11:07:41.559Z,18.07
2019-04-03T11:10:10.951Z,15.57
2019-04-03T11:12:40.623Z,13.00
2019-04-03T11:15:11.723Z,10.67
2019-04-03T11:17:41.133Z,12.60
2019-04-03T11:20:11.082Z,14.27
2019-04-03T11:22:42.738Z,10.67
2019-04-03T11:25:15.192Z,11.73
2019-04-03T11:27:44.529Z,18.30
2019-04-03T11:30:18.208Z,13.83
2019-04-03T11:32:47.123Z,14.93
2019-04-03T11:35:21.075Z,12.73
2019-04-03T11:37:48.633Z,7.63
2019-04-03T11:40:18.660Z,8.63
2019-04-03T11:42:48.244Z,8.50
2019-04-03T11:45:18.115Z,11.87
2019-04-03T11:47:47.598Z,8.50
2019-04-03T11:50:17.046Z,10.23
2019-04-03T11:52:46.653Z,11.80
2019-04-03T11:55:18.826Z,10.27
2019-04-03T11:57:49.453Z,9.33
2019-04-03T12:00:25.995Z,7.77
2019-04-03T12:02:55.641Z,9.20
2019-04-03T12:05:25.084Z,9.63
2019-04-03T12:07:56.673Z,5.60
2019-04-03T12:10:26.181Z,5.83
2019-04-03T12:12:56.256Z,8.03
2019-04-03T12:15:25.993Z,6.83
2019-04-03T12:17:55.543Z,6.07
2019-04-03T12:20:25.194Z,4.90
2019-04-03T12:22:55.729Z,5.23
2019-04-03T12:25:25.334Z,5.20
2019-04-03T12:27:54.777Z,7.20
2019-04-03T12:30:26.500Z,4.73
2019-04-03T12:32:55.225Z,5.63
2019-04-03T12:35:24.581Z,4.13
2019-04-03T12:37:53.953Z,5.23
2019-04-03T12:40:23.770Z,4.10
2019-04-03T12:42:53.304Z,3.80
2019-04-03T12:45:25.741Z,4.37
2019-04-03T12:47:54.903Z,3.13
2019-04-03T12:50:26.898Z,6.60
2019-04-03T12:52:55.302Z,5.40
2019-04-03T12:55:26.116Z,4.60
2019-04-03T12:57:56.094Z,4.10
2019-04-03T13:00:25.896Z,6.35
2019-04-03T13:02:55.459Z,2.93
2019-04-03T13:05:24.819Z,2.80
2019-04-03T13:07:54.537Z,3.37
2019-04-03T13:10:23.886Z,3.73
2019-04-03T13:12:56.273Z,3.90
2019-04-03T13:15:24.809Z,3.10
2019-04-03T13:17:54.383Z,3.23
2019-04-03T13:20:23.728Z,3.20
2019-04-03T13:22:53.140Z,3.10
2019-04-03T13:25:22.649Z,3.43
2019-04-03T13:27:52.208Z,2.80
2019-04-03T13:30:21.726Z,4.67
2019-04-03T13:32:58.341Z,3.30
2019-04-03T13:35:22.251Z,4.27
2019-04-03T13:37:54.379Z,4.80
2019-04-03T13:40:22.878Z,3.60
2019-04-03T13:42:52.834Z,9.30
2019-04-03T13:45:22.511Z,3.70
2019-04-03T13:47:52.146Z,3.40
2019-04-03T13:50:22.563Z,3.70
2019-04-03T13:52:52.605Z,7.83
2019-04-03T13:55:22.258Z,3.70
2019-04-03T13:57:51.718Z,4.13
2019-04-03T14:00:23.432Z,5.17
2019-04-03T14:02:52.708Z,3.80
2019-04-03T14:05:22.229Z,6.20
2019-04-03T14:07:51.702Z,4.67
2019-04-03T14:10:23.981Z,5.00
2019-04-03T14:12:53.382Z,9.30
2019-04-03T14:15:23.128Z,4.57
2019-04-03T14:17:57.492Z,4.10
2019-04-03T14:20:24.916Z,5.93
2019-04-03T14:22:54.349Z,6.60
2019-04-03T14:25:28.114Z,15.93
2019-04-03T14:27:56.067Z,11.37
2019-04-03T14:30:25.800Z,7.80
2019-04-03T14:32:55.298Z,5.90
2019-04-03T14:35:45.474Z,12.37
2019-04-03T14:37:58.326Z,3.43
2019-04-03T14:40:27.073Z,4.53
2019-04-03T14:42:59.095Z,3.17
2019-04-03T14:45:27.842Z,3.43
2019-04-03T14:47:57.451Z,3.23
2019-04-03T14:50:26.910Z,3.03
2019-04-03T14:52:56.344Z,3.43
2019-04-03T14:55:26.662Z,4.13
2019-04-03T14:57:56.860Z,2.87
2019-04-03T15:00:30.263Z,2.90
2019-04-03T15:02:57.923Z,2.50
2019-04-03T15:05:28.020Z,3.90
2019-04-03T15:08:00.840Z,5.60
2019-04-03T15:10:31.574Z,4.27
2019-04-03T15:13:01.575Z,3.33
2019-04-03T15:15:31.306Z,3.30
2019-04-03T15:18:01.035Z,1.90
2019-04-03T15:20:32.871Z,1.67
2019-04-03T15:23:04.933Z,2.00
2019-04-03T15:25:33.625Z,2.40
2019-04-03T15:28:03.849Z,2.50
2019-04-03T15:30:33.398Z,2.20
2019-04-03T15:33:02.829Z,1.60
2019-04-03T15:35:33.667Z,1.90
2019-04-03T15:38:03.390Z,1.50
2019-04-03T15:40:32.852Z,1.57
2019-04-03T15:43:03.796Z,1.10
2019-04-03T15:45:33.202Z,3.00
2019-04-03T15:48:02.794Z,1.40
2019-04-03T15:50:35.352Z,7.53
2019-04-03T15:53:03.581Z,1.47
2019-04-03T15:55:34.850Z,1.30
2019-04-03T15:58:04.258Z,1.30
2019-04-03T16:00:34.778Z,1.10
2019-04-03T16:03:04.955Z,1.37
2019-04-03T16:05:36.379Z,1.20
2019-04-03T16:08:05.798Z,1.37
2019-04-03T16:10:35.284Z,1.53
2019-04-03T16:13:04.699Z,3.57
2019-04-03T16:15:34.387Z,4.00
2019-04-03T16:18:06.266Z,2.40
2019-04-03T16:20:35.033Z,5.27
2019-04-03T16:23:05.062Z,4.13
2019-04-03T16:25:34.671Z,4.20
2019-04-03T16:28:04.145Z,2.00
2019-04-03T16:30:33.517Z,2.40
2019-04-03T16:33:04.881Z,2.30
2019-04-03T16:35:34.026Z,5.57
2019-04-03T16:38:03.543Z,3.17
2019-04-03T16:40:32.873Z,2.60
2019-04-03T16:43:02.264Z,3.43
2019-04-03T16:45:31.614Z,3.33
2019-04-03T16:48:02.191Z,1.93
2019-04-03T16:50:31.638Z,6.03
2019-04-03T16:53:01.015Z,2.63
2019-04-03T16:55:31.467Z,4.33
2019-04-03T16:58:00.795Z,2.87
2019-04-03T17:00:30.238Z,2.65
2019-04-03T17:03:00.164Z,2.83
2019-04-03T17:05:30.004Z,2.40
2019-04-03T17:07:59.375Z,2.70
2019-04-03T17:10:30.142Z,2.00
2019-04-03T17:13:00.891Z,6.63
2019-04-03T17:15:32.238Z,5.40
2019-04-03T17:18:01.879Z,2.70
2019-04-03T17:20:31.551Z,2.72
2019-04-03T17:23:02.436Z,4.47
2019-04-03T17:25:44.148Z,4.70
2019-04-03T17:28:07.974Z,3.93
2019-04-03T17:30:34.604Z,2.50
2019-04-03T17:33:04.637Z,3.13
2019-04-03T17:35:34.231Z,2.97
2019-04-03T17:38:03.762Z,4.70
2019-04-03T17:40:33.302Z,3.10
2019-04-03T17:43:02.653Z,3.77
2019-04-03T17:45:32.099Z,6.93
2019-04-03T17:48:01.499Z,4.63
2019-04-03T17:50:30.954Z,3.85
2019-04-03T17:53:00.350Z,2.73
2019-04-03T17:55:29.647Z,2.87
2019-04-03T17:57:59.077Z,2.60
2019-04-03T18:00:28.626Z,2.63
2019-04-03T18:02:57.944Z,2.67
2019-04-03T18:05:27.405Z,2.67
2019-04-03T18:07:58.651Z,2.60
2019-04-03T18:10:27.827Z,3.03
2019-04-03T18:12:57.201Z,2.50
2019-04-03T18:15:27.403Z,2.87
2019-04-03T18:17:57.834Z,4.53
2019-04-03T18:20:27.235Z,2.40
2019-04-03T18:22:56.635Z,2.17
2019-04-03T18:25:28.550Z,5.40
2019-04-03T18:27:58.693Z,5.33
2019-04-03T18:30:28.119Z,3.00
2019-04-03T18:32:57.503Z,6.27
2019-04-03T18:35:26.830Z,6.30
2019-04-03T18:37:56.203Z,3.53
2019-04-03T18:40:25.595Z,2.70
2019-04-03T18:42:54.990Z,2.83
2019-04-03T18:45:25.781Z,6.50
2019-04-03T18:47:55.558Z,5.85
2019-04-03T18:50:25.037Z,3.62
2019-04-03T18:52:54.532Z,4.33
2019-04-03T18:55:23.866Z,6.78
2019-04-03T18:57:53.305Z,6.60
2019-04-03T19:00:22.709Z,6.13
2019-04-03T19:02:52.157Z,6.90
2019-04-03T19:05:21.490Z,4.60
2019-04-03T19:07:51.137Z,7.37
2019-04-03T19:10:22.916Z,6.90
2019-04-03T19:12:51.659Z,6.77
2019-04-03T19:15:21.110Z,5.57
2019-04-03T19:18:00.120Z,7.17
2019-04-03T19:20:21.928Z,7.20
2019-04-03T19:23:01.914Z,7.43
2019-04-03T19:25:22.499Z,10.33
2019-04-03T19:27:51.905Z,8.23
2019-04-03T19:30:21.295Z,6.23
2019-04-03T19:32:50.797Z,8.53
2019-04-03T19:35:20.526Z,7.23
2019-04-03T19:37:49.985Z,7.63
2019-04-03T19:40:19.674Z,7.93
2019-04-03T19:42:49.126Z,6.97
2019-04-03T19:45:20.625Z,9.13
2019-04-03T19:47:50.874Z,13.43
2019-04-03T19:50:20.487Z,11.73
2019-04-03T19:52:51.800Z,11.87
2019-04-03T19:55:23.183Z,9.67
2019-04-03T19:57:52.308Z,10.33
2019-04-03T20:00:22.774Z,9.73
2019-04-03T20:02:52.588Z,11.50
2019-04-03T20:05:21.991Z,10.57
2019-04-03T20:10:54.718Z,11.97
2019-04-03T20:13:29.801Z,11.43
2019-04-03T20:16:18.203Z,11.20
2019-04-03T20:18:56.265Z,9.00
2019-04-03T20:21:44.918Z,9.87
2019-04-03T20:24:12.798Z,7.77
2019-04-03T20:26:42.363Z,10.53
2019-04-03T20:29:13.773Z,8.80
2019-04-03T20:31:44.939Z,8.97
2019-04-03T20:34:28.590Z,7.67
2019-04-03T20:37:08.563Z,11.90
2019-04-03T20:39:39.903Z,6.93
2019-04-03T20:42:09.344Z,7.20
2019-04-03T20:44:39.173Z,8.80
2019-04-03T20:47:11.839Z,8.47
2019-04-03T20:49:43.605Z,6.27
2019-04-03T20:52:12.231Z,5.83
2019-04-03T20:54:41.615Z,6.83
2019-04-03T20:57:13.405Z,10.63
2019-04-03T20:59:43.011Z,7.63
2019-04-03T21:02:13.038Z,7.60
2019-04-03T21:04:42.521Z,8.80
2019-04-03T21:07:11.903Z,10.43
2019-04-03T21:09:41.291Z,10.03
2019-04-03T21:12:10.829Z,9.40
2019-04-03T21:14:41.539Z,10.73
2019-04-03T21:17:11.268Z,11.27
2019-04-03T21:19:41.207Z,14.30
2019-04-03T21:22:10.649Z,12.50
2019-04-03T21:24:40.044Z,15.30
2019-04-03T21:27:09.454Z,11.00
2019-04-03T21:29:40.024Z,12.13
2019-04-03T21:32:10.757Z,14.00
2019-04-03T21:34:42.740Z,15.80
2019-04-03T21:37:13.849Z,16.80
2019-04-03T21:39:43.709Z,18.57
2019-04-03T21:42:13.622Z,19.70
2019-04-03T21:44:43.038Z,18.57
2019-04-03T21:47:12.447Z,22.50
2019-04-03T21:49:41.839Z,13.23
2019-04-03T21:52:11.265Z,16.70
2019-04-03T21:54:40.666Z,15.27
2019-04-03T21:57:10.125Z,17.90
2019-04-03T21:59:39.849Z,22.00
2019-04-03T22:02:10.656Z,16.07
2019-04-03T22:04:40.037Z,17.40
2019-04-03T22:07:09.445Z,17.50
2019-04-03T22:09:38.968Z,16.20
2019-04-03T22:12:08.421Z,19.93
2019-04-03T22:14:37.737Z,13.47
2019-04-03T22:17:07.112Z,17.87
2019-04-03T22:19:36.837Z,15.37
2019-04-03T22:22:06.136Z,14.97
2019-04-03T22:24:37.544Z,18.90
2019-04-03T22:27:06.609Z,18.20
2019-04-03T22:29:35.978Z,17.07
2019-04-03T22:32:05.317Z,16.40
2019-04-03T22:34:35.717Z,13.17
2019-04-03T22:37:05.071Z,13.97
2019-04-03T22:39:34.446Z,15.33
2019-04-03T22:42:03.802Z,15.13
2019-04-03T22:44:33.112Z,13.00
2019-04-03T22:47:02.437Z,12.80
2019-04-03T22:49:34.028Z,13.33
2019-04-03T22:52:03.948Z,15.57
2019-04-03T22:54:34.459Z,16.07
2019-04-03T22:57:03.861Z,14.43
2019-04-03T22:59:33.261Z,15.13
2019-04-03T23:02:02.706Z,18.43
2019-04-03T23:04:32.178Z,22.30
2019-04-03T23:07:01.577Z,21.83
2019-04-03T23:09:30.994Z,16.80
2019-04-03T23:12:01.041Z,18.63
2019-04-03T23:14:31.464Z,24.43
2019-04-03T23:17:00.836Z,18.17
2019-04-03T23:19:32.360Z,16.33
2019-04-03T23:22:01.217Z,19.67
2019-04-03T23:24:30.586Z,25.30
2019-04-03T23:27:02.357Z,23.03
2019-04-03T23:29:30.952Z,23.57
2019-04-03T23:32:00.334Z,28.60
2019-04-03T23:34:29.734Z,30.20
2019-04-03T23:36:59.173Z,26.87
2019-04-03T23:39:28.607Z,25.60
2019-04-03T23:41:57.974Z,40.93
2019-04-03T23:44:27.387Z,31.27
2019-04-03T23:46:56.811Z,34.93
2019-04-03T23:49:26.204Z,34.57
2019-04-03T23:51:57.058Z,33.17
2019-04-03T23:54:26.672Z,36.57
2019-04-03T23:56:56.137Z,31.80
2019-04-03T23:59:25.531Z,31.53
